Time;durP1;ratioP1;P1;durP2;ratioP2;P2;SDS_P1;SDS_P2;PMS_P1;PMS_P2;Temp;Humidity;BMP_temperature;BMP_pressure;BME280_temperature;BME280_humidity;BME280_pressure;Samples;Min_cycle;Max_cycle;Signal;HPM_P1;HPM_P2
2023/03/03 00:02:01;;;;;;;5.68;3.00;;;;;;;4.45;74.00;93938.34;5105906;28;20039;-76
2023/03/03 00:04:26;;;;;;;7.38;3.50;;;;;;;4.46;74.41;93933.84;5105840;28;20054;-75
2023/03/03 00:06:52;;;;;;;5.18;2.95;;;;;;;4.39;74.33;93931.53;5105509;28;20035;-76
2023/03/03 00:09:17;;;;;;;6.72;2.90;;;;;;;4.39;74.50;93923.59;5105909;28;20097;-76
2023/03/03 00:11:44;;;;;;;4.78;2.83;;;;;;;4.40;74.57;93927.84;5105833;28;20026;-76
2023/03/03 00:14:26;;;;;;;5.07;3.20;;;;;;;4.36;74.64;93926.81;5105681;28;20211;-76
2023/03/03 00:16:51;;;;;;;5.93;3.05;;;;;;;4.34;74.77;93921.00;5105545;28;20023;-75
2023/03/03 00:19:19;;;;;;;5.85;3.10;;;;;;;4.33;74.82;93930.75;5105736;28;20012;-75
2023/03/03 00:21:46;;;;;;;6.75;2.78;;;;;;;4.31;74.76;93932.88;5105644;28;20038;-75
2023/03/03 00:24:18;;;;;;;4.63;3.08;;;;;;;4.29;74.94;93929.72;5105473;28;20035;-75
2023/03/03 00:26:47;;;;;;;6.88;3.70;;;;;;;4.30;75.10;93926.03;5105325;28;20028;-75
2023/03/03 00:29:34;;;;;;;7.35;3.40;;;;;;;4.27;75.18;93925.78;5105502;28;20020;-75
2023/03/03 00:32:16;;;;;;;6.10;3.22;;;;;;;4.29;75.37;93921.81;5105211;28;20012;-75
2023/03/03 00:34:43;;;;;;;4.70;3.00;;;;;;;4.34;75.28;93926.28;5105284;28;20016;-76
2023/03/03 00:37:34;;;;;;;5.53;2.90;;;;;;;4.33;75.39;93932.59;5105147;28;20126;-75
2023/03/03 00:40:15;;;;;;;6.75;4.10;;;;;;;4.34;75.38;93915.72;5103128;28;20036;-76
2023/03/03 00:42:44;;;;;;;6.35;3.42;;;;;;;4.34;75.35;93915.72;5105047;28;20089;-75
2023/03/03 00:45:30;;;;;;;4.75;3.05;;;;;;;4.33;75.27;93909.66;5103790;28;20034;-75
2023/03/03 00:47:57;;;;;;;6.55;3.83;;;;;;;4.30;75.44;93907.56;5104521;28;20063;-75
2023/03/03 00:50:25;;;;;;;8.07;4.00;;;;;;;4.30;75.56;93898.88;5104802;28;20027;-75
2023/03/03 00:53:17;;;;;;;6.20;3.60;;;;;;;4.31;75.66;93901.22;5104965;28;20024;-75
2023/03/03 00:55:44;;;;;;;6.95;3.97;;;;;;;4.32;75.56;93897.53;5105003;28;20008;-75
2023/03/03 00:58:10;;;;;;;7.10;3.72;;;;;;;4.34;75.47;93889.34;5104565;28;20031;-75
2023/03/03 01:00:36;;;;;;;6.88;4.07;;;;;;;4.37;75.26;93880.88;5104736;28;20311;-76
2023/03/03 01:03:05;;;;;;;6.25;4.13;;;;;;;4.38;75.26;93874.53;5104784;28;20027;-76
2023/03/03 01:05:31;;;;;;;10.95;3.70;;;;;;;4.39;75.03;93870.81;5103468;28;20016;-76
2023/03/03 01:07:57;;;;;;;7.05;3.55;;;;;;;4.39;75.03;93871.59;5104330;28;20048;-76
2023/03/03 01:10:23;;;;;;;7.38;3.60;;;;;;;4.38;75.23;93879.81;5104423;28;20024;-76
2023/03/03 01:12:48;;;;;;;5.10;3.22;;;;;;;4.40;75.11;93867.13;5104397;28;20093;-75
2023/03/03 01:15:14;;;;;;;7.15;3.45;;;;;;;4.39;74.98;93868.19;5104456;28;20306;-75
2023/03/03 01:17:41;;;;;;;6.32;4.00;;;;;;;4.39;75.10;93868.97;5104341;28;20381;-75
2023/03/03 01:20:09;;;;;;;6.63;3.75;;;;;;;4.36;74.99;93869.53;5104381;28;20023;-75
2023/03/03 01:22:35;;;;;;;6.85;3.88;;;;;;;4.37;75.17;93875.59;5104168;28;20065;-75
2023/03/03 01:25:02;;;;;;;7.45;3.78;;;;;;;4.40;74.77;93872.41;5102966;28;20031;-75
2023/03/03 01:27:29;;;;;;;7.28;3.95;;;;;;;4.40;75.05;93875.06;5104172;28;20039;-75
2023/03/03 01:29:55;;;;;;;5.97;3.33;;;;;;;4.40;75.12;93867.91;5104149;28;20020;-75
2023/03/03 01:32:21;;;;;;;7.55;3.80;;;;;;;4.43;75.20;93871.84;5104097;28;20333;-75
2023/03/03 01:34:47;;;;;;;7.50;3.80;;;;;;;4.46;74.93;93866.03;5104183;28;20341;-75
2023/03/03 01:37:12;;;;;;;7.68;3.80;;;;;;;4.51;74.86;93871.28;5104090;28;20020;-75
2023/03/03 01:39:38;;;;;;;9.57;3.83;;;;;;;4.52;74.72;93864.13;5104030;28;20027;-75
2023/03/03 01:42:03;;;;;;;5.80;3.58;;;;;;;4.52;74.68;93875.50;5103933;28;20028;-75
2023/03/03 01:44:29;;;;;;;7.78;3.25;;;;;;;4.56;74.46;93867.81;5103929;28;20031;-76
2023/03/03 01:47:25;;;;;;;6.18;3.40;;;;;;;4.59;74.34;93872.53;5103528;28;20330;-76
2023/03/03 01:49:57;;;;;;;7.22;4.05;;;;;;;4.60;74.01;93861.72;5101561;28;20036;-76
2023/03/03 01:52:34;;;;;;;5.45;3.50;;;;;;;4.63;74.33;93866.44;5103663;28;20031;-76
2023/03/03 01:55:03;;;;;;;11.18;4.45;;;;;;;4.61;74.27;93863.28;5103728;28;20024;-75
2023/03/03 01:57:34;;;;;;;5.82;3.65;;;;;;;4.64;74.21;93861.97;5103525;28;20031;-76
2023/03/03 02:00:01;;;;;;;5.57;3.28;;;;;;;4.69;73.81;93861.91;5103590;28;20042;-76
2023/03/03 02:02:27;;;;;;;6.10;3.72;;;;;;;4.71;73.89;93859.00;5103739;28;20264;-76
2023/03/03 02:04:53;;;;;;;6.60;3.47;;;;;;;4.74;73.94;93859.25;5103554;28;20020;-76
2023/03/03 02:07:21;;;;;;;6.53;3.40;;;;;;;4.73;74.01;93859.50;5103542;28;20024;-75
2023/03/03 02:10:09;;;;;;;5.97;3.58;;;;;;;4.74;74.02;93861.06;5103614;28;20186;-75
2023/03/03 02:12:40;;;;;;;5.28;3.35;;;;;;;4.72;74.12;93858.75;5103458;28;20083;-75
2023/03/03 02:15:34;;;;;;;5.82;3.50;;;;;;;4.77;74.01;93847.34;5103347;28;20031;-75
2023/03/03 02:18:06;;;;;;;5.32;3.15;;;;;;;4.78;73.99;93864.75;5101784;28;20039;-75
2023/03/03 02:20:31;;;;;;;6.00;3.28;;;;;;;4.83;73.95;93854.94;5103409;28;20129;-76
2023/03/03 02:23:25;;;;;;;5.32;3.30;;;;;;;4.82;73.71;93849.91;5103437;28;20031;-75
2023/03/03 02:25:56;;;;;;;5.78;3.55;;;;;;;4.82;73.77;93863.13;5103042;28;20016;-76
2023/03/03 02:28:25;;;;;;;5.05;3.33;;;;;;;4.80;73.86;93862.63;5103400;28;20225;-75
2023/03/03 02:30:54;;;;;;;8.00;4.30;;;;;;;4.82;73.89;93865.75;5103140;28;20306;-76
2023/03/03 02:33:20;;;;;;;6.70;3.67;;;;;;;4.84;73.78;93858.34;5103086;28;20030;-75
2023/03/03 02:35:46;;;;;;;6.85;4.22;;;;;;;4.85;73.78;93862.59;5101970;28;20103;-75
2023/03/03 02:38:18;;;;;;;7.13;3.80;;;;;;;4.90;73.67;93859.88;5103210;28;20020;-75
2023/03/03 02:40:56;;;;;;;7.80;4.13;;;;;;;4.91;73.72;93863.34;5103365;28;20080;-74
2023/03/03 02:43:25;;;;;;;6.60;3.20;;;;;;;4.89;73.77;93852.25;5102912;28;20261;-75
2023/03/03 02:45:51;;;;;;;8.57;4.30;;;;;;;4.87;73.53;93863.09;5102898;28;20063;-74
2023/03/03 02:48:16;;;;;;;6.78;3.88;;;;;;;4.83;73.73;93854.16;5103294;28;20023;-74
2023/03/03 02:50:42;;;;;;;8.38;4.30;;;;;;;4.79;73.83;93861.06;5103270;28;20020;-75
2023/03/03 02:53:07;;;;;;;6.60;3.97;;;;;;;4.82;73.61;93860.47;5102891;28;20062;-75
2023/03/03 02:55:32;;;;;;;7.63;4.30;;;;;;;4.78;73.72;93855.00;5102952;28;20019;-75
2023/03/03 02:57:58;;;;;;;5.95;3.42;;;;;;;4.76;73.75;93853.66;5102924;28;20214;-75
2023/03/03 03:00:23;;;;;;;6.80;3.60;;;;;;;4.72;74.07;93852.66;5103050;28;20020;-75
2023/03/03 03:02:49;;;;;;;7.18;4.20;;;;;;;4.73;74.14;93841.03;5102901;28;20031;-75
2023/03/03 03:05:14;;;;;;;6.57;4.03;;;;;;;4.75;74.30;93854.75;5102820;28;20048;-75
2023/03/03 03:07:39;;;;;;;7.25;3.88;;;;;;;4.73;74.51;93847.09;5102916;28;20318;-75
2023/03/03 03:10:05;;;;;;;8.00;4.22;;;;;;;4.72;74.55;93848.19;5102837;28;20027;-75
2023/03/03 03:12:31;;;;;;;7.78;4.10;;;;;;;4.74;74.68;93837.31;5102931;28;20016;-75
2023/03/03 03:14:57;;;;;;;7.60;4.05;;;;;;;4.75;74.93;93844.19;5102725;28;20016;-76
2023/03/03 03:17:22;;;;;;;6.32;4.03;;;;;;;4.73;75.05;93841.03;5102777;28;20019;-76
2023/03/03 03:19:48;;;;;;;8.00;4.43;;;;;;;4.73;75.25;93848.97;5102696;28;20069;-76
2023/03/03 03:22:13;;;;;;;7.57;4.55;;;;;;;4.71;75.30;93841.31;5102949;28;20039;-76
2023/03/03 03:24:39;;;;;;;10.15;4.22;;;;;;;4.75;75.19;93842.31;5102596;28;20016;-75
2023/03/03 03:27:04;;;;;;;8.25;4.40;;;;;;;4.73;75.40;93835.75;5102522;28;20024;-75
2023/03/03 03:29:29;;;;;;;9.68;5.03;;;;;;;4.76;75.38;93843.09;5103937;28;20026;-76
2023/03/03 03:31:55;;;;;;;8.10;4.43;;;;;;;4.75;75.44;93841.53;5106591;28;20024;-76
2023/03/03 03:34:20;;;;;;;7.03;4.47;;;;;;;4.74;75.64;93837.31;5106659;28;20032;-76
2023/03/03 03:36:45;;;;;;;8.98;4.65;;;;;;;4.75;75.71;93826.47;5106550;28;20044;-76
2023/03/03 03:39:11;;;;;;;7.65;4.28;;;;;;;4.72;75.58;93834.97;5106472;28;20252;-76
2023/03/03 03:41:37;;;;;;;9.40;5.50;;;;;;;4.70;75.59;93834.47;5106361;28;20314;-76
2023/03/03 03:44:02;;;;;;;8.40;4.82;;;;;;;4.70;75.53;93831.00;5106276;28;20023;-76
2023/03/03 03:46:28;;;;;;;7.72;4.68;;;;;;;4.71;75.58;93829.97;5105965;28;20088;-76
2023/03/03 03:48:53;;;;;;;7.70;4.47;;;;;;;4.69;75.75;93822.31;5106088;28;20020;-76
2023/03/03 03:51:19;;;;;;;8.75;4.90;;;;;;;4.65;75.67;93825.78;5106140;28;20020;-76
2023/03/03 03:53:44;;;;;;;9.57;4.95;;;;;;;4.63;75.87;93823.41;5106248;28;20047;-75
2023/03/03 03:56:10;;;;;;;8.50;5.43;;;;;;;4.63;75.87;93826.84;5106060;28;20311;-75
2023/03/03 03:58:35;;;;;;;12.88;5.30;;;;;;;4.62;75.72;93817.34;5105877;28;20020;-76
2023/03/03 04:01:03;;;;;;;8.93;5.40;;;;;;;4.63;75.77;93826.06;5106056;28;20027;-75
2023/03/03 04:03:28;;;;;;;7.82;5.25;;;;;;;4.62;75.80;93820.00;5105911;28;20026;-74
2023/03/03 04:05:54;;;;;;;7.80;4.80;;;;;;;4.62;75.73;93820.00;5105751;28;20031;-75
2023/03/03 04:08:19;;;;;;;10.35;5.43;;;;;;;4.60;75.74;93816.84;5105820;28;20016;-74
2023/03/03 04:10:45;;;;;;;10.43;5.40;;;;;;;4.59;75.74;93819.75;5105983;28;20214;-76
2023/03/03 04:13:10;;;;;;;11.23;5.82;;;;;;;4.59;75.58;93817.91;5105795;28;20028;-75
2023/03/03 04:15:35;;;;;;;11.88;5.60;;;;;;;4.56;75.74;93822.94;5105739;28;20053;-75
2023/03/03 04:18:03;;;;;;;9.73;5.60;;;;;;;4.55;75.80;93819.50;5105676;28;20379;-75
2023/03/03 04:20:28;;;;;;;9.88;5.35;;;;;;;4.57;75.58;93821.88;5105441;28;20016;-75
2023/03/03 04:22:53;;;;;;;13.52;5.65;;;;;;;4.56;75.78;93817.66;5105528;28;20015;-75
2023/03/03 04:25:19;;;;;;;8.02;5.22;;;;;;;4.57;75.50;93817.38;5105554;28;20039;-75
2023/03/03 04:27:45;;;;;;;11.52;6.13;;;;;;;4.55;75.64;93818.72;5105704;28;20269;-76
2023/03/03 04:30:11;;;;;;;9.48;5.65;;;;;;;4.54;75.82;93817.13;5105275;28;20091;-75
2023/03/03 04:32:37;;;;;;;12.38;6.00;;;;;;;4.50;75.78;93816.09;5105498;28;20091;-75
2023/03/03 04:35:03;;;;;;;12.57;6.10;;;;;;;4.48;75.84;93813.78;5105291;28;20241;-75
2023/03/03 04:37:28;;;;;;;11.88;5.90;;;;;;;4.47;75.88;93820.09;5105376;28;20020;-75
2023/03/03 04:39:53;;;;;;;11.13;6.25;;;;;;;4.50;75.88;93824.03;5104799;28;20073;-75
2023/03/03 04:42:19;;;;;;;9.52;6.15;;;;;;;4.47;75.92;93820.09;5105174;28;20191;-75
2023/03/03 04:44:44;;;;;;;10.10;5.55;;;;;;;4.46;76.06;93817.72;5105293;28;20023;-75
2023/03/03 04:47:10;;;;;;;11.48;5.82;;;;;;;4.47;76.19;93814.03;5104766;28;20103;-75
2023/03/03 04:49:35;;;;;;;13.57;6.25;;;;;;;4.48;76.15;93810.31;5104858;28;20095;-76
2023/03/03 04:52:01;;;;;;;10.80;6.68;;;;;;;4.46;76.25;93807.97;5105062;28;20032;-76
2023/03/03 04:54:26;;;;;;;9.70;5.65;;;;;;;4.49;76.04;93817.97;5104865;28;20337;-76
2023/03/03 04:56:52;;;;;;;12.93;6.68;;;;;;;4.49;76.07;93812.69;5104920;28;20008;-76
2023/03/03 04:59:17;;;;;;;11.55;6.15;;;;;;;4.48;75.75;93824.31;5103865;28;20016;-77
2023/03/03 05:01:45;;;;;;;9.10;5.88;;;;;;;4.47;75.98;93825.38;5104827;28;20016;-77
2023/03/03 05:04:10;;;;;;;9.68;5.68;;;;;;;4.46;76.01;93823.81;5104763;28;20015;-77
2023/03/03 05:06:36;;;;;;;10.80;6.07;;;;;;;4.46;75.90;93821.19;5104717;28;20026;-75
2023/03/03 05:09:01;;;;;;;11.95;5.80;;;;;;;4.43;76.05;93827.00;5104635;28;20032;-76
2023/03/03 05:11:26;;;;;;;10.85;5.85;;;;;;;4.48;76.06;93829.59;5104447;28;20322;-75
2023/03/03 05:13:52;;;;;;;16.52;5.65;;;;;;;4.52;76.26;93825.34;5104678;28;20024;-75
2023/03/03 05:16:18;;;;;;;9.57;5.55;;;;;;;4.55;76.50;93829.28;5104630;28;20318;-75
2023/03/03 05:18:44;;;;;;;9.45;5.43;;;;;;;4.58;76.50;93823.44;5104590;28;20398;-76
2023/03/03 05:21:10;;;;;;;10.40;5.00;;;;;;;4.60;76.09;93829.25;5104205;28;20077;-76
2023/03/03 05:23:35;;;;;;;10.60;5.30;;;;;;;4.60;76.31;93826.63;5104389;28;20024;-76
2023/03/03 05:26:01;;;;;;;19.80;6.88;;;;;;;4.60;76.52;93829.25;5104425;28;20026;-76
2023/03/03 05:28:26;;;;;;;17.83;7.60;;;;;;;4.60;76.33;93830.03;5104337;28;20352;-76
2023/03/03 05:30:52;;;;;;;24.92;9.13;;;;;;;4.60;76.35;93832.69;5104082;28;20024;-76
2023/03/03 05:33:17;;;;;;;31.92;10.00;;;;;;;4.65;76.55;93833.72;5104231;28;20334;-76
2023/03/03 05:35:43;;;;;;;15.00;7.18;;;;;;;4.66;76.58;93825.50;5104252;28;20330;-76
2023/03/03 05:38:09;;;;;;;16.70;8.25;;;;;;;4.67;76.58;93836.84;5104108;28;20024;-76
2023/03/03 05:40:36;;;;;;;28.60;10.30;;;;;;;4.67;76.57;93828.94;5104020;28;20074;-76
2023/03/03 05:43:01;;;;;;;23.42;9.32;;;;;;;4.69;76.72;93830.22;5103901;28;20066;-76
2023/03/03 05:45:27;;;;;;;15.98;6.85;;;;;;;4.72;76.85;93834.97;5103638;28;20032;-76
2023/03/03 05:47:52;;;;;;;15.73;6.53;;;;;;;4.75;76.84;93844.97;5103940;28;20066;-75
2023/03/03 05:50:20;;;;;;;10.10;4.75;;;;;;;4.78;76.68;93836.50;5103928;28;20133;-75
2023/03/03 05:52:52;;;;;;;12.05;5.47;;;;;;;4.81;76.71;93838.56;5103206;28;20024;-76
2023/03/03 05:55:18;;;;;;;9.73;5.35;;;;;;;4.82;76.48;93839.34;5103891;28;20192;-75
2023/03/03 05:57:44;;;;;;;14.40;5.03;;;;;;;4.84;76.27;93837.22;5103858;28;20099;-75
2023/03/03 06:00:12;;;;;;;11.40;5.28;;;;;;;4.87;76.49;93841.97;5103673;28;20027;-74
2023/03/03 06:02:37;;;;;;;14.70;6.32;;;;;;;4.86;76.34;93839.59;5103465;28;20020;-76
2023/03/03 06:05:02;;;;;;;12.63;6.70;;;;;;;4.82;76.77;93836.72;5103672;28;20030;-76
2023/03/03 06:07:28;;;;;;;10.45;6.47;;;;;;;4.85;76.77;93840.69;5103457;28;20336;-76
2023/03/03 06:09:53;;;;;;;16.25;7.78;;;;;;;4.87;76.92;93841.19;5103439;28;20028;-74
2023/03/03 06:12:19;;;;;;;15.32;7.45;;;;;;;4.92;77.03;93841.13;5103322;28;20019;-75
2023/03/03 06:14:44;;;;;;;13.07;6.95;;;;;;;4.95;76.67;93841.38;5103405;28;20024;-75
2023/03/03 06:17:09;;;;;;;13.90;7.85;;;;;;;4.99;76.77;93847.69;5103038;28;20065;-76
2023/03/03 06:19:35;;;;;;;16.25;7.53;;;;;;;5.02;76.56;93844.47;5103028;28;20027;-75
2023/03/03 06:22:00;;;;;;;14.13;8.02;;;;;;;5.03;76.83;93847.91;5103311;28;20024;-75
2023/03/03 06:24:29;;;;;;;18.20;9.25;;;;;;;5.05;76.73;93847.63;5103128;28;20024;-76
2023/03/03 06:26:55;;;;;;;17.83;9.82;;;;;;;5.03;76.88;93846.06;5103023;28;20020;-75
2023/03/03 06:29:21;;;;;;;22.92;12.18;;;;;;;5.07;76.78;93850.75;5102921;28;20385;-77
2023/03/03 06:31:46;;;;;;;24.98;11.45;;;;;;;5.08;76.61;93850.50;5102996;28;20028;-77
2023/03/03 06:34:11;;;;;;;19.55;10.23;;;;;;;5.11;76.61;93851.78;5103092;28;20030;-77
2023/03/03 06:36:37;;;;;;;17.63;9.38;;;;;;;5.12;76.35;93846.22;5103156;28;20032;-77
2023/03/03 06:39:02;;;;;;;18.35;8.60;;;;;;;5.12;76.71;93859.44;5103072;28;20028;-77
2023/03/03 06:41:28;;;;;;;15.40;8.55;;;;;;;5.13;76.09;93854.94;5103181;28;20195;-77
2023/03/03 06:43:54;;;;;;;18.15;8.88;;;;;;;5.11;76.29;93852.59;5102938;28;20326;-76
2023/03/03 06:46:19;;;;;;;19.00;8.25;;;;;;;5.18;76.05;93855.69;5102825;28;20063;-75
2023/03/03 06:48:45;;;;;;;15.38;8.40;;;;;;;5.20;76.02;93855.41;5103154;28;20020;-76
2023/03/03 06:51:33;;;;;;;15.52;7.60;;;;;;;5.22;75.96;93850.63;5102983;28;20058;-75
2023/03/03 06:54:05;;;;;;;15.45;8.50;;;;;;;5.28;75.71;93860.09;5102928;28;20020;-76
2023/03/03 06:56:35;;;;;;;19.42;8.35;;;;;;;5.28;75.90;93849.53;5102750;28;20053;-75
2023/03/03 06:59:04;;;;;;;15.50;7.47;;;;;;;5.34;75.70;93853.69;5102789;28;20048;-76
2023/03/03 07:01:34;;;;;;;17.38;8.57;;;;;;;5.39;75.52;93858.13;5102784;28;20101;-76
2023/03/03 07:04:00;;;;;;;14.65;7.63;;;;;;;5.40;75.25;93860.50;5105012;28;20307;-76
2023/03/03 07:06:27;;;;;;;16.10;7.20;;;;;;;5.46;75.06;93866.53;5107035;28;20020;-74
2023/03/03 07:08:53;;;;;;;16.27;6.55;;;;;;;5.48;74.65;93867.03;5106876;28;20039;-75
2023/03/03 07:11:21;;;;;;;18.85;6.63;;;;;;;5.59;74.30;93865.06;5106998;28;20027;-75
2023/03/03 07:13:51;;;;;;;13.63;6.30;;;;;;;5.63;74.29;93866.06;5106958;28;20091;-76
2023/03/03 07:16:23;;;;;;;15.32;7.65;;;;;;;5.67;73.83;93866.31;5106925;28;20051;-76
2023/03/03 07:19:19;;;;;;;14.50;7.72;;;;;;;5.61;74.01;93865.56;5106844;28;20226;-76
2023/03/03 07:21:45;;;;;;;13.85;7.28;;;;;;;5.62;74.05;93864.50;5106769;28;20035;-75
2023/03/03 07:24:27;;;;;;;12.05;6.75;;;;;;;5.68;74.09;93871.31;5106522;28;20024;-75
2023/03/03 07:26:58;;;;;;;12.15;7.20;;;;;;;5.68;74.11;93863.38;5106287;28;20034;-74
2023/03/03 07:29:26;;;;;;;12.25;7.32;;;;;;;5.72;73.08;93858.31;5106523;28;20105;-75
2023/03/03 07:31:54;;;;;;;14.02;8.00;;;;;;;5.75;73.35;93855.09;5106364;28;20016;-74
2023/03/03 07:34:32;;;;;;;13.30;7.65;;;;;;;5.72;73.47;93859.09;5106299;28;20051;-74
2023/03/03 07:37:04;;;;;;;13.57;7.95;;;;;;;5.78;73.29;93860.63;5105842;28;20020;-74
2023/03/03 07:39:37;;;;;;;11.68;7.03;;;;;;;5.73;73.52;93862.53;5105898;28;20020;-74
2023/03/03 07:42:40;;;;;;;13.52;7.60;;;;;;;5.72;73.52;93859.09;5105961;28;20174;-74
2023/03/03 07:45:31;;;;;;;12.20;6.78;;;;;;;5.83;74.10;93855.25;5106131;28;20049;-74
2023/03/03 07:48:23;;;;;;;14.23;7.40;;;;;;;5.81;74.65;93856.63;5101031;28;20071;-73
2023/03/03 07:50:49;;;;;;;;;;;;;;;5.86;74.51;93858.41;5106465;28;20016;-73
2023/03/03 07:53:26;;;;;;;16.70;7.47;;;;;;;5.89;73.86;93858.63;5106080;28;19967;-73
2023/03/03 07:55:51;;;;;;;17.88;9.90;;;;;;;5.91;73.79;93858.34;5105792;28;20424;-73
2023/03/03 07:58:26;;;;;;;15.75;8.80;;;;;;;5.96;73.61;93859.13;5106172;28;20031;-73
2023/03/03 08:01:24;;;;;;;12.38;7.30;;;;;;;6.01;73.93;93855.63;5105891;28;20097;-73
2023/03/03 08:03:50;;;;;;;21.25;8.00;;;;;;;6.04;72.71;93849.75;5082706;28;20036;-74
2023/03/03 08:06:34;;;;;;;17.67;6.85;;;;;;;6.03;72.29;93850.81;5105823;28;20024;-74
2023/03/03 08:09:08;;;;;;;18.20;7.30;;;;;;;5.96;72.79;93848.53;5105639;28;20046;-73
2023/03/03 08:11:34;;;;;;;12.85;6.63;;;;;;;5.93;73.07;93853.56;5105615;28;20028;-73
2023/03/03 08:14:00;;;;;;;18.00;7.32;;;;;;;5.94;73.20;93855.94;5105480;28;20303;-74
2023/03/03 08:16:36;;;;;;;14.18;7.22;;;;;;;5.93;72.53;93851.72;5104711;28;20226;-73
2023/03/03 08:19:03;;;;;;;12.60;7.55;;;;;;;5.98;72.06;93858.81;5105331;28;20024;-74
2023/03/03 08:21:30;;;;;;;14.40;7.03;;;;;;;5.99;72.44;93852.47;5105458;28;20051;-73
2023/03/03 08:23:56;;;;;;;13.10;7.00;;;;;;;6.01;72.49;93845.81;5105310;28;20370;-73
2023/03/03 08:26:23;;;;;;;13.32;6.57;;;;;;;6.06;73.03;93844.94;5105121;28;20031;-73
2023/03/03 08:28:49;;;;;;;16.63;6.32;;;;;;;6.06;71.82;93844.94;5105237;28;20032;-73
2023/03/03 08:31:16;;;;;;;10.20;5.80;;;;;;;6.03;71.27;93843.66;5105387;28;20051;-74
2023/03/03 08:33:42;;;;;;;12.30;6.68;;;;;;;6.01;71.73;93840.53;5105135;28;20039;-74
2023/03/03 08:36:08;;;;;;;12.38;6.43;;;;;;;6.01;72.26;93839.75;5105083;28;20035;-74
2023/03/03 08:38:34;;;;;;;37.05;17.73;;;;;;;6.10;72.21;93837.25;5105024;28;20023;-74
2023/03/03 08:41:00;;;;;;;103.78;46.80;;;;;;;6.16;71.58;93844.03;5104806;28;20028;-74
2023/03/03 08:43:26;;;;;;;24.55;11.45;;;;;;;6.14;71.18;93838.25;5105015;28;20257;-74
2023/03/03 08:45:56;;;;;;;13.93;6.60;;;;;;;6.09;70.78;93841.75;5104635;28;20043;-74
2023/03/03 08:48:22;;;;;;;11.60;6.20;;;;;;;6.07;69.90;93843.91;5104805;28;20023;-74
2023/03/03 08:50:47;;;;;;;13.98;6.68;;;;;;;6.04;70.83;93849.75;5105045;28;20024;-73
2023/03/03 08:53:13;;;;;;;10.75;5.70;;;;;;;6.10;71.36;93845.97;5104958;28;20091;-74
2023/03/03 08:55:40;;;;;;;13.05;7.40;;;;;;;6.18;70.79;93847.97;5104754;28;20024;-74
2023/03/03 08:58:06;;;;;;;11.57;6.65;;;;;;;6.28;70.33;93841.75;5104770;28;20218;-74
2023/03/03 09:00:31;;;;;;;13.40;6.95;;;;;;;6.35;70.29;93839.56;5104652;28;20082;-73
2023/03/03 09:02:57;;;;;;;10.50;6.28;;;;;;;6.41;70.94;93842.88;5104634;28;20043;-74
2023/03/03 09:05:24;;;;;;;10.27;5.72;;;;;;;6.47;70.71;93841.75;5104480;28;20030;-74
2023/03/03 09:07:50;;;;;;;13.85;6.25;;;;;;;6.50;70.13;93846.47;5104381;28;20026;-74
2023/03/03 09:10:21;;;;;;;16.02;5.30;;;;;;;6.53;70.13;93850.41;5104645;28;20043;-74
2023/03/03 09:12:47;;;;;;;9.48;5.07;;;;;;;6.48;69.50;93838.03;5104624;28;20028;-74
2023/03/03 09:15:18;;;;;;;9.68;5.05;;;;;;;6.49;69.35;93839.59;5104598;28;20091;-74
2023/03/03 09:17:44;;;;;;;8.35;5.10;;;;;;;6.51;69.58;93837.44;5104667;28;20268;-74
2023/03/03 09:20:30;;;;;;;15.13;6.80;;;;;;;6.53;70.03;93839.81;5104374;28;20040;-73
2023/03/03 09:22:56;;;;;;;17.35;8.10;;;;;;;6.49;70.54;93842.25;5104345;28;20024;-73
2023/03/03 09:25:32;;;;;;;14.05;8.15;;;;;;;6.42;71.21;93836.53;5104172;28;20019;-74
2023/03/03 09:27:58;;;;;;;20.92;9.20;;;;;;;6.35;71.96;93841.38;5102889;28;20051;-75
2023/03/03 09:30:26;;;;;;;20.20;9.70;;;;;;;6.35;72.63;93833.44;5104134;28;20023;-75
2023/03/03 09:32:52;;;;;;;20.08;11.93;;;;;;;6.36;73.23;93835.03;5104038;28;20024;-78
2023/03/03 09:35:35;;;;;;;22.52;12.05;;;;;;;6.36;72.55;93840.34;5104027;28;20087;-79
2023/03/03 09:38:01;;;;;;;18.75;10.65;;;;;;;6.29;73.00;93832.75;5103940;28;20187;-79
2023/03/03 09:40:41;;;;;;;22.67;10.18;;;;;;;6.31;73.31;93837.75;5103786;28;20032;-79
2023/03/03 09:43:36;;;;;;;14.35;8.85;;;;;;;6.39;73.05;93839.75;5103820;28;20222;-78
2023/03/03 09:46:40;;;;;;;26.00;12.73;;;;;;;6.45;72.84;93843.88;5098521;28;20046;-78
2023/03/03 09:49:33;;;;;;;19.15;10.07;;;;;;;6.48;72.70;93843.34;5080527;28;20734;-79
2023/03/03 09:52:16;;;;;;;22.27;9.27;;;;;;;6.53;72.51;93845.09;5080240;28;20029;-79
2023/03/03 09:55:15;;;;;;;13.88;8.70;;;;;;;6.55;70.90;93841.09;5079991;28;20223;-79
2023/03/03 09:57:52;;;;;;;16.92;9.32;;;;;;;6.50;71.08;93840.41;5078810;28;20219;-79
2023/03/03 10:00:30;;;;;;;17.80;8.90;;;;;;;6.42;71.06;93833.88;5080125;28;20192;-78
2023/03/03 10:03:20;;;;;;;21.75;10.93;;;;;;;6.34;72.07;93839.84;5078939;28;20073;-79
2023/03/03 10:05:57;;;;;;;18.02;10.98;;;;;;;6.35;72.84;93844.03;5079940;28;20021;-79
2023/03/03 10:08:41;;;;;;;18.98;10.25;;;;;;;6.37;73.00;93834.75;5079693;28;20341;-79
2023/03/03 10:11:12;;;;;;;18.30;8.63;;;;;;;6.41;71.74;93832.31;5079686;28;20319;-79
2023/03/03 10:13:55;;;;;;;18.05;9.82;;;;;;;6.43;71.37;93825.66;5079550;28;20037;-79
2023/03/03 10:16:52;;;;;;;15.80;8.93;;;;;;;6.45;71.35;93832.53;5077928;28;20057;-79
2023/03/03 10:19:33;;;;;;;19.73;10.45;;;;;;;6.38;71.85;93833.66;5069926;28;20039;-79
2023/03/03 10:22:07;;;;;;;20.42;11.02;;;;;;;6.37;72.66;93826.00;5077799;28;20021;-79
2023/03/03 10:25:00;;;;;;;24.70;12.75;;;;;;;6.39;73.04;93829.16;5077724;28;20024;-78
2023/03/03 10:28:03;;;;;;;13.32;8.27;;;;;;;6.45;72.13;93821.94;5076447;28;20028;-78
2023/03/03 10:30:38;;;;;;;;;;;;;;;6.42;70.80;93818.00;5079159;28;20071;-79
2023/03/03 10:33:09;;;;;;;14.40;8.13;;;;;;;6.37;71.23;93818.88;5079174;28;19904;-79
2023/03/03 10:35:45;;;;;;;14.53;8.50;;;;;;;6.39;71.61;93813.28;5079133;28;20053;-79
2023/03/03 10:38:22;;;;;;;18.55;9.60;;;;;;;6.41;72.13;93816.41;5079265;28;20336;-79
2023/03/03 10:41:10;;;;;;;15.38;8.13;;;;;;;6.40;71.58;93807.69;5079150;28;20059;-79
2023/03/03 10:44:04;;;;;;;19.35;8.95;;;;;;;6.41;71.51;93824.34;5078967;28;20062;-78
2023/03/03 10:46:54;;;;;;;19.23;8.93;;;;;;;6.40;71.42;93814.84;5078976;28;20033;-79
2023/03/03 10:49:25;;;;;;;15.90;8.52;;;;;;;6.35;71.78;93814.91;5078792;28;20040;-79
2023/03/03 10:51:50;;;;;;;15.70;7.87;;;;;;;6.25;71.39;93800.00;5078894;28;20197;-79
2023/03/03 10:54:46;;;;;;;13.15;8.20;;;;;;;6.22;71.78;93806.63;5079007;28;20028;-78
2023/03/03 10:57:30;;;;;;;16.98;9.60;;;;;;;6.19;72.68;93809.84;5078815;28;20068;-78
2023/03/03 11:00:20;;;;;;;25.17;10.68;;;;;;;6.15;72.81;93808.84;5069193;28;20096;-79
2023/03/03 11:02:52;;;;;;;24.73;14.25;;;;;;;6.08;73.17;93805.75;5065564;28;20035;-78
2023/03/03 11:05:46;;;;;;;18.60;10.02;;;;;;;6.02;72.38;93801.63;5065167;28;20082;-78
2023/03/03 11:08:29;;;;;;;24.38;13.45;;;;;;;5.94;72.69;93791.63;5064356;28;20235;-78
2023/03/03 11:11:13;;;;;;;;;;;;;;;5.85;73.90;93798.66;5065961;28;20017;-79
2023/03/03 11:13:55;;;;;;;22.67;11.55;;;;;;;5.78;75.09;93794.50;5065231;28;19908;-78
2023/03/03 11:16:59;;;;;;;25.55;11.85;;;;;;;5.77;75.51;93797.41;5065376;28;20029;-79
2023/03/03 11:19:43;;;;;;;21.38;12.38;;;;;;;5.73;74.32;93786.63;5064997;28;20048;-79
2023/03/03 11:22:32;;;;;;;22.08;12.20;;;;;;;5.73;74.64;93785.84;5065178;28;20028;-78
2023/03/03 11:25:25;;;;;;;19.23;11.05;;;;;;;5.76;74.76;93783.41;5065114;28;20084;-78
2023/03/03 11:28:06;;;;;;;25.77;12.25;;;;;;;5.80;74.35;93775.69;5064776;28;20063;-79
2023/03/03 11:30:53;;;;;;;20.45;11.63;;;;;;;5.74;74.44;93788.22;5065103;28;20044;-78
2023/03/03 11:33:30;;;;;;;27.95;12.43;;;;;;;5.72;74.98;93786.91;5064860;28;20025;-79
2023/03/03 11:36:15;;;;;;;24.85;12.57;;;;;;;5.68;75.22;93797.28;5064957;28;20029;-78
2023/03/03 11:38:58;;;;;;;19.55;12.35;;;;;;;5.70;75.62;93781.91;5064564;28;20021;-78
2023/03/03 11:41:39;;;;;;;23.63;12.55;;;;;;;5.66;75.89;93778.25;5064780;28;20289;-78
2023/03/03 11:44:31;;;;;;;67.18;29.45;;;;;;;5.69;76.31;93768.97;5064624;28;20032;-78
2023/03/03 11:47:21;;;;;;;39.75;19.42;;;;;;;5.72;76.60;93779.78;5064772;28;20037;-78
2023/03/03 11:50:02;;;;;;;37.20;17.20;;;;;;;5.75;75.99;93770.47;5064732;28;20246;-78
2023/03/03 11:52:52;;;;;;;60.90;23.60;;;;;;;5.83;76.06;93767.97;5063137;28;20311;-78
2023/03/03 11:55:40;;;;;;;77.97;32.58;;;;;;;5.84;75.11;93768.75;5064470;28;20143;-78
2023/03/03 11:58:26;;;;;;;142.15;55.70;;;;;;;5.88;75.28;93759.19;5064302;28;20025;-78